createdAt,value
2017-05-12T00:01:54.927Z,3.08
2017-05-12T00:04:25.773Z,2.52
2017-05-12T00:06:56.436Z,2.68
2017-05-12T00:09:27.528Z,2.34
2017-05-12T00:11:58.312Z,3.08
2017-05-12T00:14:29.376Z,3.38
2017-05-12T00:17:02.354Z,2.28
2017-05-12T00:19:33.006Z,2.86
2017-05-12T00:22:03.710Z,2.86
2017-05-12T00:24:34.421Z,2.40
2017-05-12T00:27:05.349Z,2.68
2017-05-12T00:29:35.958Z,2.00
2017-05-12T00:32:06.681Z,2.40
2017-05-12T00:34:37.438Z,2.02
2017-05-12T00:37:08.142Z,2.02
2017-05-12T00:39:38.816Z,1.66
2017-05-12T00:42:09.795Z,2.06
2017-05-12T00:44:40.659Z,1.88
2017-05-12T00:47:11.126Z,1.74
2017-05-12T00:49:42.963Z,1.40
2017-05-12T00:52:14.064Z,1.52
2017-05-12T00:54:46.206Z,1.38
2017-05-12T00:57:17.233Z,1.66
2017-05-12T00:59:49.095Z,2.00
2017-05-12T01:02:19.885Z,1.88
2017-05-12T01:04:50.799Z,1.74
2017-05-12T01:07:21.812Z,1.40
2017-05-12T01:09:52.666Z,1.72
2017-05-12T01:12:23.267Z,2.30
2017-05-12T01:14:54.135Z,2.16
2017-05-12T01:17:24.917Z,1.98
2017-05-12T01:19:56.052Z,2.56
2017-05-12T01:22:26.603Z,1.72
2017-05-12T01:24:57.317Z,1.62
2017-05-12T01:27:28.269Z,2.18
2017-05-12T01:29:58.764Z,2.12
2017-05-12T01:32:29.364Z,2.10
2017-05-12T01:35:00.412Z,1.92
2017-05-12T01:37:31.145Z,2.22
2017-05-12T01:40:02.204Z,2.10
2017-05-12T01:42:33.038Z,2.00
2017-05-12T01:45:03.929Z,1.80
2017-05-12T01:47:34.565Z,1.82
2017-05-12T01:50:05.570Z,1.46
2017-05-12T01:52:36.509Z,1.60
2017-05-12T01:55:08.864Z,1.94
2017-05-12T01:57:39.760Z,1.76
2017-05-12T02:00:11.594Z,1.74
2017-05-12T02:02:42.766Z,2.78
2017-05-12T02:05:15.064Z,1.90
2017-05-12T02:07:46.763Z,2.04
2017-05-12T02:10:18.102Z,2.12
2017-05-12T02:12:48.838Z,1.70
2017-05-12T02:15:19.546Z,1.80
2017-05-12T02:17:50.582Z,2.14
2017-05-12T02:20:21.255Z,1.74
2017-05-12T02:22:51.847Z,1.82
2017-05-12T02:25:22.707Z,2.06
2017-05-12T02:27:53.601Z,1.82
2017-05-12T02:30:24.265Z,1.90
2017-05-12T02:32:55.133Z,2.20
2017-05-12T02:35:26.026Z,2.58
2017-05-12T02:37:56.730Z,2.56
2017-05-12T02:40:27.852Z,2.62
2017-05-12T02:42:58.704Z,5.98
2017-05-12T02:45:29.819Z,2.46
2017-05-12T02:48:01.762Z,2.50
2017-05-12T02:50:32.555Z,2.56
2017-05-12T02:53:03.350Z,2.58
2017-05-12T02:55:34.813Z,3.18
2017-05-12T02:58:06.124Z,2.88
2017-05-12T03:00:36.995Z,2.82
2017-05-12T03:03:08.024Z,2.30
2017-05-12T03:05:38.785Z,1.98
2017-05-12T03:08:10.507Z,3.60
2017-05-12T03:10:41.337Z,2.40
2017-05-12T03:13:11.974Z,2.30
2017-05-12T03:15:42.681Z,2.24
2017-05-12T03:18:13.381Z,2.94
2017-05-12T03:20:44.611Z,2.50
2017-05-12T03:23:15.561Z,2.82
2017-05-12T03:25:46.932Z,2.62
2017-05-12T03:28:17.848Z,3.10
2017-05-12T03:30:48.842Z,3.04
2017-05-12T03:33:19.515Z,2.62
2017-05-12T03:35:50.614Z,3.10
2017-05-12T03:38:21.458Z,1.64
2017-05-12T03:40:52.534Z,2.08
2017-05-12T03:43:23.220Z,2.48
2017-05-12T03:45:54.184Z,2.54
2017-05-12T03:48:25.193Z,3.30
2017-05-12T03:50:56.164Z,2.50
2017-05-12T03:53:26.935Z,3.02
2017-05-12T03:55:58.865Z,2.14
2017-05-12T03:58:29.166Z,3.30
2017-05-12T04:00:59.622Z,3.02
2017-05-12T04:03:30.399Z,2.44
2017-05-12T04:06:01.206Z,4.60
2017-05-12T04:08:32.017Z,5.56
2017-05-12T04:11:03.910Z,5.22
2017-05-12T04:13:34.820Z,4.68
2017-05-12T04:16:05.650Z,4.92
2017-05-12T04:18:36.351Z,2.84
2017-05-12T04:21:07.378Z,4.60
2017-05-12T04:23:38.326Z,5.22
2017-05-12T04:26:09.453Z,3.82
2017-05-12T04:28:40.247Z,2.58
2017-05-12T04:31:11.409Z,2.60
2017-05-12T04:33:42.093Z,2.00
2017-05-12T04:36:13.098Z,2.00
2017-05-12T04:38:44.033Z,2.16
2017-05-12T04:41:14.923Z,2.30
2017-05-12T04:43:45.619Z,2.78
2017-05-12T04:46:16.370Z,2.18
2017-05-12T04:48:47.019Z,2.38
2017-05-12T04:51:18.070Z,2.00
2017-05-12T04:53:48.685Z,1.84
2017-05-12T04:56:20.601Z,1.58
2017-05-12T04:58:51.305Z,1.54
2017-05-12T05:01:22.195Z,2.30
2017-05-12T05:03:53.681Z,1.42
2017-05-12T05:06:24.238Z,1.44
2017-05-12T05:08:54.895Z,2.06
2017-05-12T05:11:25.730Z,1.72
2017-05-12T05:13:56.632Z,1.52
2017-05-12T05:16:27.261Z,1.46
2017-05-12T05:18:57.945Z,1.44
2017-05-12T05:21:28.943Z,1.90
2017-05-12T05:23:59.427Z,3.22
2017-05-12T05:26:30.321Z,4.24
2017-05-12T05:29:01.015Z,5.53
2017-05-12T05:31:32.019Z,5.96
2017-05-12T05:34:02.385Z,6.52
2017-05-12T05:36:33.065Z,5.54
2017-05-12T05:39:04.060Z,2.83
2017-05-12T05:41:35.528Z,1.87
2017-05-12T05:44:06.385Z,2.32
2017-05-12T05:46:37.284Z,2.45
2017-05-12T05:49:08.071Z,2.02
2017-05-12T05:51:38.830Z,2.20
2017-05-12T05:54:09.703Z,2.27
2017-05-12T05:56:41.587Z,1.60
2017-05-12T05:59:12.526Z,2.35
2017-05-12T06:01:43.578Z,2.28
2017-05-12T06:04:14.461Z,3.57
2017-05-12T06:06:46.363Z,4.65
2017-05-12T06:09:18.019Z,4.22
2017-05-12T06:11:48.864Z,3.70
2017-05-12T06:14:19.748Z,3.40
2017-05-12T06:16:50.712Z,3.52
2017-05-12T06:19:21.492Z,3.98
2017-05-12T06:21:52.215Z,3.33
2017-05-12T06:24:23.123Z,2.42
2017-05-12T06:26:53.992Z,1.97
2017-05-12T06:29:24.762Z,3.02
2017-05-12T06:31:55.625Z,3.10
2017-05-12T06:34:26.555Z,2.37
2017-05-12T06:36:57.191Z,3.03
2017-05-12T06:39:28.289Z,2.50
2017-05-12T06:41:58.972Z,2.18
2017-05-12T06:44:29.828Z,2.90
2017-05-12T06:47:03.689Z,4.00
2017-05-12T06:49:34.512Z,4.17
2017-05-12T06:52:05.332Z,2.92
2017-05-12T06:54:36.334Z,3.43
2017-05-12T06:57:08.281Z,2.73
2017-05-12T06:59:38.989Z,3.02
2017-05-12T07:02:09.053Z,2.70
2017-05-12T07:04:39.007Z,3.25
2017-05-12T07:07:10.064Z,2.95
2017-05-12T07:09:40.094Z,2.27
2017-05-12T07:12:10.653Z,2.57
2017-05-12T07:14:41.384Z,2.82
2017-05-12T07:17:12.859Z,3.42
2017-05-12T07:19:43.520Z,2.02
2017-05-12T07:22:14.219Z,2.50
2017-05-12T07:24:45.072Z,2.48
2017-05-12T07:27:15.759Z,2.35
2017-05-12T07:29:46.599Z,2.40
2017-05-12T07:32:17.144Z,3.23
2017-05-12T07:34:48.175Z,2.70
2017-05-12T07:37:19.088Z,2.93
2017-05-12T07:39:49.730Z,2.93
2017-05-12T07:42:20.737Z,2.50
2017-05-12T07:44:51.208Z,2.50
2017-05-12T07:47:22.746Z,2.88
2017-05-12T07:49:53.489Z,2.93
2017-05-12T07:52:24.189Z,1.80
2017-05-12T07:54:54.871Z,1.72
2017-05-12T07:57:26.616Z,2.38
2017-05-12T07:59:57.395Z,2.20
2017-05-12T08:02:28.260Z,2.80
2017-05-12T08:04:58.935Z,3.38
2017-05-12T08:07:29.783Z,2.10
2017-05-12T08:10:00.724Z,2.95
2017-05-12T08:12:31.555Z,2.33
2017-05-12T08:15:02.283Z,1.88
2017-05-12T08:17:33.074Z,1.63
2017-05-12T08:20:03.522Z,1.97
2017-05-12T08:22:34.937Z,2.42
2017-05-12T08:25:05.688Z,2.37
2017-05-12T08:27:36.393Z,2.42
2017-05-12T08:30:06.981Z,2.38
2017-05-12T08:32:37.647Z,2.48
2017-05-12T08:35:08.358Z,2.60
2017-05-12T08:37:39.177Z,2.20
2017-05-12T08:40:10.033Z,1.95
2017-05-12T08:42:41.022Z,2.58
2017-05-12T08:45:11.787Z,2.12
2017-05-12T08:47:42.800Z,2.12
2017-05-12T08:50:13.483Z,2.25
2017-05-12T08:52:44.123Z,1.80
2017-05-12T08:55:14.824Z,2.23
2017-05-12T08:57:46.407Z,2.42
2017-05-12T09:00:16.907Z,2.08
2017-05-12T09:02:47.611Z,2.22
2017-05-12T09:05:18.129Z,1.85
2017-05-12T09:07:48.849Z,1.57
2017-05-12T09:10:19.348Z,1.80
2017-05-12T09:12:50.109Z,1.50
2017-05-12T09:15:20.895Z,2.02
2017-05-12T09:17:51.935Z,1.80
2017-05-12T09:20:22.863Z,1.93
2017-05-12T09:22:54.069Z,2.12
2017-05-12T09:25:24.750Z,1.82
2017-05-12T09:27:54.841Z,1.97
2017-05-12T09:30:25.291Z,1.65
2017-05-12T09:32:56.260Z,2.00
2017-05-12T09:35:26.761Z,1.75
2017-05-12T09:37:58.425Z,1.97
2017-05-12T09:40:29.075Z,2.63
2017-05-12T09:42:59.812Z,2.65
2017-05-12T09:45:30.443Z,1.92
2017-05-12T09:48:00.949Z,1.88
2017-05-12T09:50:32.302Z,1.47
2017-05-12T09:53:03.270Z,1.70
2017-05-12T09:55:33.899Z,2.02
2017-05-12T09:58:05.521Z,1.40
2017-05-12T10:00:37.280Z,1.98
2017-05-12T10:03:08.039Z,1.78
2017-05-12T10:05:38.656Z,2.12
2017-05-12T10:08:10.275Z,1.82
2017-05-12T10:10:41.299Z,2.07
2017-05-12T10:13:12.114Z,1.95
2017-05-12T10:15:42.599Z,1.63
2017-05-12T10:18:14.112Z,2.43
2017-05-12T10:20:44.727Z,1.97
2017-05-12T10:23:15.350Z,1.85
2017-05-12T10:25:46.111Z,1.57
2017-05-12T10:28:17.097Z,2.40
2017-05-12T10:30:47.633Z,2.12
2017-05-12T10:33:19.193Z,1.85
2017-05-12T10:35:50.319Z,2.32
2017-05-12T10:38:20.877Z,1.45
2017-05-12T10:40:51.523Z,1.80
2017-05-12T10:43:22.342Z,1.65
2017-05-12T10:45:53.157Z,1.70
2017-05-12T10:48:24.036Z,1.28
2017-05-12T10:50:54.725Z,1.42
2017-05-12T10:53:25.757Z,1.32
2017-05-12T10:55:56.821Z,1.38
2017-05-12T10:58:29.217Z,1.23
2017-05-12T11:01:00.126Z,1.72
2017-05-12T11:03:30.555Z,1.25
2017-05-12T11:06:01.412Z,1.45
2017-05-12T11:08:32.334Z,1.45
2017-05-12T11:11:03.075Z,1.35
2017-05-12T11:13:33.948Z,1.40
2017-05-12T11:16:04.540Z,1.63
2017-05-12T11:18:35.446Z,1.45
2017-05-12T11:21:06.012Z,1.20
2017-05-12T11:23:36.745Z,1.45
2017-05-12T11:26:08.681Z,1.60
2017-05-12T11:28:39.326Z,1.03
2017-05-12T11:31:11.122Z,1.42
2017-05-12T11:33:41.671Z,1.40
2017-05-12T11:36:12.353Z,1.45
2017-05-12T11:38:42.966Z,1.68
2017-05-12T11:41:13.676Z,1.50
2017-05-12T11:43:44.792Z,1.00
2017-05-12T11:46:15.402Z,1.28
2017-05-12T11:48:46.273Z,1.53
2017-05-12T11:51:17.030Z,1.53
2017-05-12T11:53:47.704Z,1.73
2017-05-12T11:56:18.452Z,1.57
2017-05-12T11:58:49.850Z,1.95
2017-05-12T12:01:20.686Z,1.50
2017-05-12T12:03:51.432Z,1.92
2017-05-12T12:06:22.051Z,1.68
2017-05-12T12:08:53.042Z,1.57
2017-05-12T12:11:23.834Z,2.48
2017-05-12T12:13:54.645Z,1.95
2017-05-12T12:16:25.271Z,1.80
2017-05-12T12:18:56.044Z,3.37
2017-05-12T12:21:26.599Z,2.10
2017-05-12T12:23:58.105Z,2.02
2017-05-12T12:26:28.817Z,1.93
2017-05-12T12:28:59.749Z,1.60
2017-05-12T12:31:30.531Z,1.60
2017-05-12T12:34:01.240Z,1.60
2017-05-12T12:36:32.896Z,1.57
2017-05-12T12:39:03.303Z,2.18
2017-05-12T12:41:33.882Z,1.82
2017-05-12T12:44:04.642Z,1.88
2017-05-12T12:46:35.472Z,1.93
2017-05-12T12:49:06.068Z,2.00
2017-05-12T12:51:36.950Z,1.87
2017-05-12T12:54:07.747Z,1.77
2017-05-12T12:56:38.531Z,2.28
2017-05-12T12:59:10.995Z,1.85
2017-05-12T13:01:41.726Z,1.78
2017-05-12T13:04:12.776Z,1.40
2017-05-12T13:06:43.642Z,2.08
2017-05-12T13:09:14.656Z,1.95
2017-05-12T13:11:45.275Z,1.82
2017-05-12T13:14:16.006Z,1.80
2017-05-12T13:16:47.563Z,2.57
2017-05-12T13:19:18.384Z,1.83
2017-05-12T13:21:48.839Z,2.00
2017-05-12T13:24:19.556Z,2.10
2017-05-12T13:26:50.387Z,2.03
2017-05-12T13:29:20.719Z,3.40
2017-05-12T13:31:52.531Z,2.62
2017-05-12T13:34:23.489Z,2.38
2017-05-12T13:36:54.331Z,2.67
2017-05-12T13:39:25.114Z,2.12
2017-05-12T13:41:55.960Z,1.45
2017-05-12T13:44:27.042Z,1.67
2017-05-12T13:46:57.644Z,2.18
2017-05-12T13:49:28.488Z,2.17
2017-05-12T13:51:59.000Z,1.65
2017-05-12T13:54:29.760Z,1.60
2017-05-12T13:57:00.463Z,1.68
2017-05-12T13:59:31.977Z,1.27
2017-05-12T14:02:02.746Z,1.67
2017-05-12T14:04:33.382Z,1.68
2017-05-12T14:07:04.006Z,1.92
2017-05-12T14:09:34.869Z,1.68
2017-05-12T14:12:05.662Z,1.48
2017-05-12T14:14:36.431Z,1.52
2017-05-12T14:17:06.886Z,2.27
2017-05-12T14:19:37.904Z,1.83
2017-05-12T14:22:08.522Z,2.43
2017-05-12T14:24:39.301Z,2.10
2017-05-12T14:27:10.357Z,1.97
2017-05-12T14:29:40.812Z,2.02
2017-05-12T14:32:11.566Z,2.00
2017-05-12T14:34:42.537Z,1.57
2017-05-12T14:37:13.212Z,1.63
2017-05-12T14:39:44.083Z,2.02
2017-05-12T14:42:14.872Z,2.25
2017-05-12T14:44:46.557Z,1.80
2017-05-12T14:47:17.505Z,1.95
2017-05-12T14:49:48.282Z,1.62
2017-05-12T14:52:19.144Z,1.45
2017-05-12T14:54:49.236Z,1.82
2017-05-12T14:57:20.069Z,1.68
2017-05-12T14:59:52.366Z,1.96
2017-05-12T15:02:23.051Z,1.90
2017-05-12T15:04:53.757Z,1.88
2017-05-12T15:07:24.622Z,1.82
2017-05-12T15:09:55.187Z,1.30
2017-05-12T15:12:26.202Z,1.70
2017-05-12T15:14:59.745Z,1.78
2017-05-12T15:17:30.281Z,1.56
2017-05-12T15:20:00.777Z,1.58
2017-05-12T15:22:31.867Z,1.80
2017-05-12T15:25:02.461Z,1.46
2017-05-12T15:27:33.128Z,2.06
2017-05-12T15:30:04.096Z,1.32
2017-05-12T15:32:34.653Z,1.34
2017-05-12T15:35:05.552Z,1.60
2017-05-12T15:37:36.139Z,1.90
2017-05-12T15:40:07.537Z,1.70
2017-05-12T15:42:38.239Z,3.18
2017-05-12T15:45:09.290Z,1.50
2017-05-12T15:47:39.930Z,2.12
2017-05-12T15:50:10.736Z,2.10
2017-05-12T15:52:41.579Z,3.84
2017-05-12T15:55:12.586Z,7.22
2017-05-12T15:57:43.327Z,2.56
2017-05-12T16:00:14.883Z,1.48
2017-05-12T16:02:45.668Z,1.78
2017-05-12T16:05:16.296Z,2.20
2017-05-12T16:07:47.024Z,1.96
2017-05-12T16:10:17.854Z,1.76
2017-05-12T16:12:48.561Z,1.38
2017-05-12T16:15:19.310Z,1.06
2017-05-12T16:17:50.003Z,1.72
2017-05-12T16:20:21.008Z,1.34
2017-05-12T16:22:51.722Z,1.72
2017-05-12T16:25:22.524Z,2.30
2017-05-12T16:27:53.364Z,1.80
2017-05-12T16:30:23.805Z,1.56
2017-05-12T16:32:54.502Z,1.32
2017-05-12T16:35:25.388Z,1.62
2017-05-12T16:37:56.813Z,1.50
2017-05-12T16:40:27.792Z,1.18
2017-05-12T16:42:58.536Z,1.52
2017-05-12T16:45:29.094Z,1.30
2017-05-12T16:47:59.606Z,1.10
2017-05-12T16:50:29.653Z,1.36
2017-05-12T16:52:59.613Z,1.26
2017-05-12T16:55:30.419Z,1.20
2017-05-12T16:58:00.427Z,1.12
2017-05-12T17:00:31.960Z,1.10
2017-05-12T17:03:02.239Z,1.32
2017-05-12T17:05:33.006Z,1.04
2017-05-12T17:08:03.595Z,1.06
2017-05-12T17:10:34.471Z,1.10
2017-05-12T17:13:05.533Z,1.90
2017-05-12T17:15:36.176Z,1.30
2017-05-12T17:18:07.240Z,1.40
2017-05-12T17:20:37.846Z,1.16
2017-05-12T17:23:08.891Z,1.04
2017-05-12T17:25:39.736Z,1.16
2017-05-12T17:28:10.458Z,1.22
2017-05-12T17:30:41.399Z,1.28
2017-05-12T17:33:12.106Z,0.92
2017-05-12T17:35:42.953Z,0.80
2017-05-12T17:38:13.774Z,1.12
2017-05-12T17:40:44.420Z,0.94
2017-05-12T17:43:15.185Z,1.00
2017-05-12T17:45:45.836Z,1.10
2017-05-12T17:48:16.643Z,1.02
2017-05-12T17:50:47.434Z,1.20
2017-05-12T17:53:18.327Z,1.48
2017-05-12T17:55:49.015Z,1.46
2017-05-12T17:58:19.810Z,2.30
2017-05-12T18:00:51.643Z,1.98
2017-05-12T18:03:22.249Z,1.68
2017-05-12T18:05:53.004Z,2.06
2017-05-12T18:08:23.561Z,1.40
2017-05-12T18:10:54.463Z,1.68
2017-05-12T18:13:25.033Z,1.20
2017-05-12T18:15:56.077Z,3.32
2017-05-12T18:18:26.065Z,1.60
2017-05-12T18:20:56.759Z,1.48
2017-05-12T18:23:27.352Z,1.70
2017-05-12T18:25:58.007Z,1.32
2017-05-12T18:28:30.231Z,1.32
2017-05-12T18:31:00.926Z,1.20
2017-05-12T18:33:31.706Z,1.20
2017-05-12T18:36:02.516Z,1.16
2017-05-12T18:38:33.230Z,1.54
2017-05-12T18:41:04.095Z,1.50
2017-05-12T18:43:34.882Z,1.70
2017-05-12T18:46:05.809Z,1.72
2017-05-12T18:48:36.240Z,1.58
2017-05-12T18:51:07.083Z,2.22
2017-05-12T18:53:37.875Z,2.18
2017-05-12T18:56:08.805Z,1.52
2017-05-12T18:58:39.373Z,1.44
2017-05-12T19:01:11.176Z,1.26
2017-05-12T19:03:41.651Z,0.92
2017-05-12T19:06:12.246Z,0.88
2017-05-12T19:08:42.728Z,0.80
2017-05-12T19:11:14.521Z,0.70
2017-05-12T19:13:45.263Z,1.08
2017-05-12T19:16:16.143Z,1.26
2017-05-12T19:18:47.077Z,0.96
2017-05-12T19:21:18.130Z,1.10
2017-05-12T19:23:48.909Z,1.06
2017-05-12T19:26:19.786Z,1.00
2017-05-12T19:28:50.431Z,1.12
2017-05-12T19:31:21.081Z,1.68
2017-05-12T19:33:51.573Z,0.90
2017-05-12T19:36:22.507Z,1.36
2017-05-12T19:38:53.071Z,1.68
2017-05-12T19:41:24.039Z,1.40
2017-05-12T19:43:54.866Z,1.06
2017-05-12T19:46:25.916Z,1.28
2017-05-12T19:48:56.779Z,1.44
2017-05-12T19:51:27.434Z,1.20
2017-05-12T19:53:58.147Z,1.56
2017-05-12T19:56:28.869Z,1.20
2017-05-12T19:58:59.540Z,0.96
2017-05-12T20:01:31.483Z,0.90
2017-05-12T20:04:02.258Z,0.94
2017-05-12T20:06:32.930Z,1.02
2017-05-12T20:09:03.144Z,0.98
2017-05-12T20:11:33.665Z,1.02
2017-05-12T20:14:04.408Z,1.10
2017-05-12T20:16:34.741Z,0.94
2017-05-12T20:19:05.448Z,1.00
2017-05-12T20:21:36.137Z,1.20
2017-05-12T20:24:06.826Z,0.94
2017-05-12T20:26:37.461Z,0.84
2017-05-12T20:29:08.224Z,0.84
2017-05-12T20:31:39.218Z,1.10
2017-05-12T20:34:09.840Z,1.00
2017-05-12T20:36:40.857Z,1.28
2017-05-12T20:39:11.575Z,0.98
2017-05-12T20:41:42.237Z,0.84
2017-05-12T20:44:12.927Z,1.06
2017-05-12T20:46:43.606Z,0.80
2017-05-12T20:49:14.700Z,0.98
2017-05-12T20:51:45.334Z,0.82
2017-05-12T20:54:15.809Z,1.36
2017-05-12T20:56:46.850Z,1.44
2017-05-12T20:59:24.834Z,1.02
2017-05-12T21:01:56.331Z,1.44
2017-05-12T21:04:26.979Z,1.58
2017-05-12T21:06:58.076Z,1.00
2017-05-12T21:09:28.944Z,1.12
2017-05-12T21:11:59.864Z,0.70
2017-05-12T21:14:38.349Z,1.92
2017-05-12T21:17:09.290Z,1.08
2017-05-12T21:19:40.033Z,1.46
2017-05-12T21:22:10.845Z,1.78
2017-05-12T21:24:41.300Z,1.42
2017-05-12T21:27:12.300Z,1.22
2017-05-12T21:29:42.920Z,1.44
2017-05-12T21:32:13.759Z,1.32
2017-05-12T21:34:44.828Z,1.14
2017-05-12T21:37:15.440Z,1.12
2017-05-12T21:39:46.355Z,1.28
2017-05-12T21:42:17.316Z,0.80
2017-05-12T21:44:47.849Z,1.00
2017-05-12T21:47:18.682Z,1.10
2017-05-12T21:49:49.424Z,1.10
2017-05-12T21:52:20.259Z,1.02
2017-05-12T21:54:51.047Z,1.02
2017-05-12T21:57:22.042Z,1.10
2017-05-12T21:59:52.764Z,1.22
2017-05-12T22:02:24.959Z,1.80
2017-05-12T22:04:55.545Z,1.00
2017-05-12T22:07:26.503Z,1.52
2017-05-12T22:09:57.368Z,1.30
2017-05-12T22:12:28.064Z,1.18
2017-05-12T22:14:58.593Z,2.42
2017-05-12T22:17:29.514Z,1.44
2017-05-12T22:20:00.389Z,1.04
2017-05-12T22:22:30.997Z,1.10
2017-05-12T22:25:01.839Z,1.10
2017-05-12T22:27:32.662Z,1.20
2017-05-12T22:30:03.085Z,1.38
2017-05-12T22:32:33.609Z,1.20
2017-05-12T22:35:03.787Z,1.02
2017-05-12T22:37:34.729Z,1.12
2017-05-12T22:40:05.547Z,1.02
2017-05-12T22:42:36.430Z,1.22
2017-05-12T22:45:07.297Z,1.26
2017-05-12T22:47:37.982Z,0.80
2017-05-12T22:50:08.895Z,1.10
2017-05-12T22:52:39.610Z,1.30
2017-05-12T22:55:10.190Z,1.00
2017-05-12T22:57:41.314Z,0.90
2017-05-12T23:00:11.928Z,0.90
2017-05-12T23:02:43.426Z,1.22
2017-05-12T23:05:18.100Z,0.82
2017-05-12T23:07:49.191Z,1.00
2017-05-12T23:10:19.963Z,1.50
2017-05-12T23:12:50.711Z,1.68
2017-05-12T23:15:21.201Z,1.46
2017-05-12T23:17:52.086Z,1.26
2017-05-12T23:20:22.895Z,1.20
2017-05-12T23:22:53.644Z,1.72
2017-05-12T23:25:24.472Z,1.44
2017-05-12T23:27:55.231Z,1.68
2017-05-12T23:30:25.596Z,1.77
2017-05-12T23:32:56.467Z,2.38
2017-05-12T23:35:27.346Z,1.30
2017-05-12T23:37:58.373Z,1.24
2017-05-12T23:40:28.953Z,1.36
2017-05-12T23:42:59.948Z,1.28
2017-05-12T23:45:38.064Z,1.66
2017-05-12T23:48:08.899Z,1.04
2017-05-12T23:50:39.473Z,0.94
2017-05-12T23:53:11.215Z,1.32
2017-05-12T23:55:42.720Z,1.80
2017-05-12T23:58:12.772Z,2.48
